Time;durP1;ratioP1;P1;durP2;ratioP2;P2;SDS_P1;SDS_P2;PMS_P1;PMS_P2;Temp;Humidity;BMP_temperature;BMP_pressure;BME280_temperature;BME280_humidity;BME280_pressure;Samples;Min_cycle;Max_cycle;Signal;HPM_P1;HPM_P2
2024/01/05 00:00:42;;;;;;;21.55;8.10;;;3.40;99.90;;;;;;5087416;28;20124;-70
2024/01/05 00:03:07;;;;;;;19.88;8.10;;;3.40;99.90;;;;;;5102404;28;20032;-70
2024/01/05 00:05:35;;;;;;;152.55;16.85;;;3.40;99.90;;;;;;5096106;28;20023;-70
2024/01/05 00:08:01;;;;;;;27.15;10.93;;;3.40;99.90;;;;;;5080371;28;20488;-70
2024/01/05 00:10:26;;;;;;;30.00;11.93;;;3.20;99.90;;;;;;5088596;28;20100;-72
2024/01/05 00:12:52;;;;;;;268.08;18.85;;;3.10;99.90;;;;;;5092153;28;20032;-70
2024/01/05 00:15:18;;;;;;;39.58;13.55;;;3.10;99.90;;;;;;5088600;28;20064;-70
2024/01/05 00:17:43;;;;;;;27.50;10.60;;;3.00;99.90;;;;;;5087672;28;20032;-70
2024/01/05 00:20:10;;;;;;;24.65;10.30;;;2.90;99.90;;;;;;5092503;28;20739;-70
2024/01/05 00:22:37;;;;;;;22.83;9.65;;;3.00;99.90;;;;;;5074976;28;20488;-70
2024/01/05 00:25:03;;;;;;;27.25;8.73;;;3.00;99.90;;;;;;5088542;28;20036;-70
2024/01/05 00:27:29;;;;;;;20.50;8.40;;;3.00;99.90;;;;;;5089051;28;20032;-72
2024/01/05 00:29:55;;;;;;;19.88;7.28;;;3.00;99.90;;;;;;5087896;28;20113;-70
2024/01/05 00:32:20;;;;;;;18.08;6.40;;;3.00;99.90;;;;;;5093056;28;20040;-70
2024/01/05 00:34:46;;;;;;;18.75;8.88;;;3.10;99.90;;;;;;5103656;28;20073;-70
2024/01/05 00:37:12;;;;;;;21.17;7.82;;;3.00;99.90;;;;;;5089109;28;20020;-70
2024/01/05 00:39:37;;;;;;;20.15;8.75;;;2.90;99.90;;;;;;5087016;28;20071;-70
2024/01/05 00:42:05;;;;;;;21.40;8.48;;;2.90;99.90;;;;;;5088393;28;20032;-70
2024/01/05 00:44:30;;;;;;;16.67;4.78;;;2.90;99.90;;;;;;5097767;28;20031;-72
2024/01/05 00:46:56;;;;;;;6.30;2.80;;;2.90;99.90;;;;;;5088933;28;20093;-70
2024/01/05 00:49:21;;;;;;;9.20;3.25;;;3.10;99.90;;;;;;5088683;28;20055;-70
2024/01/05 00:51:47;;;;;;;17.95;5.57;;;3.20;99.90;;;;;;5087715;28;20451;-70
2024/01/05 00:54:13;;;;;;;12.05;3.88;;;3.20;99.90;;;;;;5091175;28;20035;-70
2024/01/05 00:56:39;;;;;;;8.07;3.25;;;3.10;99.90;;;;;;5087405;28;20032;-70
2024/01/05 00:59:06;;;;;;;9.23;2.97;;;3.20;99.90;;;;;;5087782;28;20051;-69
2024/01/05 01:01:32;;;;;;;13.32;2.70;;;3.30;99.90;;;;;;5092839;28;20105;-72
2024/01/05 01:03:57;;;;;;;10.25;3.22;;;3.50;99.90;;;;;;5084239;28;20529;-71
2024/01/05 01:06:23;;;;;;;15.38;6.00;;;3.60;99.90;;;;;;5074463;28;20025;-71
2024/01/05 01:08:49;;;;;;;14.65;5.38;;;3.60;99.90;;;;;;5086058;28;20506;-70
2024/01/05 01:11:17;;;;;;;9.90;2.30;;;3.50;99.90;;;;;;5091788;28;20034;-70
2024/01/05 01:13:44;;;;;;;9.25;2.83;;;3.40;99.90;;;;;;5090636;28;20035;-70
2024/01/05 01:16:11;;;;;;;7.68;2.42;;;3.50;99.90;;;;;;5085161;28;20052;-70
2024/01/05 01:18:37;;;;;;;9.68;1.85;;;3.60;99.90;;;;;;5088119;28;20051;-70
2024/01/05 01:21:03;;;;;;;7.93;1.90;;;3.70;99.90;;;;;;5069197;28;20413;-70
2024/01/05 01:23:29;;;;;;;10.57;1.75;;;3.80;99.90;;;;;;5111927;28;20084;-70
2024/01/05 01:25:54;;;;;;;7.38;2.13;;;3.80;99.90;;;;;;5110765;28;20429;-69
2024/01/05 01:28:20;;;;;;;8.75;1.77;;;3.90;99.90;;;;;;5102621;28;20470;-71
2024/01/05 01:30:45;;;;;;;7.88;3.28;;;3.90;99.90;;;;;;5088670;28;20088;-71
2024/01/05 01:33:11;;;;;;;11.80;2.85;;;4.00;99.90;;;;;;5087523;28;20115;-70
2024/01/05 01:35:37;;;;;;;7.40;2.20;;;3.90;99.90;;;;;;5072215;28;20585;-70
2024/01/05 01:38:03;;;;;;;7.35;2.08;;;3.80;99.90;;;;;;5090636;28;20040;-70
2024/01/05 01:40:28;;;;;;;6.38;1.67;;;3.80;99.90;;;;;;5071787;28;20390;-70
2024/01/05 01:42:55;;;;;;;10.63;3.15;;;3.80;99.90;;;;;;5073245;28;20518;-70
2024/01/05 01:45:20;;;;;;;7.53;1.95;;;3.80;99.90;;;;;;5078479;28;20428;-70
2024/01/05 01:47:47;;;;;;;12.48;2.00;;;3.80;99.90;;;;;;5055964;28;20040;-71
2024/01/05 01:50:14;;;;;;;10.63;2.67;;;3.70;99.90;;;;;;5070550;28;20363;-70
2024/01/05 01:52:45;;;;;;;6.32;2.00;;;3.80;99.90;;;;;;5089920;28;20507;-70
2024/01/05 01:55:12;;;;;;;11.95;2.38;;;3.80;99.90;;;;;;5089262;28;20540;-70
2024/01/05 01:57:39;;;;;;;7.95;2.88;;;3.80;99.90;;;;;;5056091;28;20046;-70
2024/01/05 02:00:06;;;;;;;10.45;4.65;;;3.80;99.90;;;;;;5090145;28;20051;-71
2024/01/05 02:02:33;;;;;;;7.85;4.13;;;3.50;99.90;;;;;;5069169;28;20044;-71
2024/01/05 02:04:59;;;;;;;10.38;4.75;;;3.30;99.90;;;;;;5089281;28;20034;-70
2024/01/05 02:07:25;;;;;;;9.68;4.40;;;3.20;99.90;;;;;;5087756;28;20440;-71
2024/01/05 02:09:51;;;;;;;10.18;4.25;;;3.10;99.90;;;;;;5070004;28;20121;-71
2024/01/05 02:12:17;;;;;;;8.50;3.70;;;3.10;99.90;;;;;;5074940;28;20364;-70
2024/01/05 02:14:43;;;;;;;13.13;4.40;;;3.10;99.90;;;;;;5052449;28;20382;-70
2024/01/05 02:17:28;;;;;;;11.88;3.90;;;3.20;99.90;;;;;;5073836;28;20028;-70
2024/01/05 02:19:54;;;;;;;9.45;3.65;;;3.10;99.90;;;;;;5072561;28;20218;-70
2024/01/05 02:22:21;;;;;;;12.63;2.50;;;3.00;99.90;;;;;;5083142;28;20032;-69
2024/01/05 02:24:47;;;;;;;15.85;3.83;;;3.10;99.90;;;;;;5073699;28;20032;-70
2024/01/05 02:27:13;;;;;;;12.98;2.58;;;3.20;99.90;;;;;;5058428;28;20498;-70
2024/01/05 02:29:38;;;;;;;10.35;2.08;;;3.20;99.90;;;;;;5087824;28;20031;-72
2024/01/05 02:32:04;;;;;;;10.82;3.63;;;3.30;99.90;;;;;;5088282;28;20032;-70
2024/01/05 02:34:30;;;;;;;8.93;3.42;;;3.20;99.90;;;;;;5070231;28;20036;-71
2024/01/05 02:36:55;;;;;;;13.73;2.70;;;3.20;99.90;;;;;;5069446;28;20471;-70
2024/01/05 02:39:21;;;;;;;10.77;2.13;;;3.20;99.90;;;;;;5085666;28;20040;-70
2024/01/05 02:41:47;;;;;;;10.50;3.25;;;3.30;99.90;;;;;;5066888;28;20040;-70
2024/01/05 02:44:12;;;;;;;8.43;2.53;;;3.40;99.90;;;;;;5085996;28;20036;-70
2024/01/05 02:46:38;;;;;;;7.60;2.30;;;3.40;99.90;;;;;;5089811;28;20032;-73
2024/01/05 02:49:04;;;;;;;12.82;4.68;;;3.40;99.90;;;;;;5070697;28;20032;-70
2024/01/05 02:51:29;;;;;;;10.98;4.80;;;3.20;99.90;;;;;;5088487;28;20027;-70
2024/01/05 02:53:55;;;;;;;9.80;2.13;;;2.90;99.90;;;;;;5089376;28;20429;-71
2024/01/05 02:56:22;;;;;;;9.23;2.00;;;2.80;99.90;;;;;;5083045;28;20444;-70
2024/01/05 02:58:48;;;;;;;10.68;4.35;;;3.10;99.90;;;;;;5069026;28;20039;-70
2024/01/05 03:01:17;;;;;;;12.35;5.20;;;3.20;99.90;;;;;;5050848;28;20391;-71
2024/01/05 03:03:45;;;;;;;9.52;4.70;;;3.00;99.90;;;;;;5051031;28;20043;-70
2024/01/05 03:06:11;;;;;;;11.57;5.03;;;2.70;99.90;;;;;;5049619;28;20113;-70
2024/01/05 03:08:37;;;;;;;13.13;5.15;;;2.60;99.90;;;;;;5050326;28;20096;-71
2024/01/05 03:11:03;;;;;;;10.95;4.70;;;2.50;99.90;;;;;;5048861;28;20044;-69
2024/01/05 03:13:28;;;;;;;12.82;4.55;;;2.60;99.90;;;;;;5049719;28;20029;-70
2024/01/05 03:15:54;;;;;;;9.45;3.78;;;2.60;99.90;;;;;;5068389;28;20039;-70
2024/01/05 03:18:19;;;;;;;8.35;4.15;;;2.70;99.90;;;;;;5068764;28;20505;-70
2024/01/05 03:20:46;;;;;;;11.88;4.82;;;2.70;99.90;;;;;;5068591;28;20498;-71
2024/01/05 03:23:12;;;;;;;15.30;4.50;;;2.80;99.90;;;;;;5069307;28;20028;-70
2024/01/05 03:25:37;;;;;;;9.25;3.78;;;2.60;99.90;;;;;;5056846;28;20028;-70
2024/01/05 03:28:03;;;;;;;12.25;4.68;;;2.60;99.90;;;;;;5049086;28;20458;-70
2024/01/05 03:30:29;;;;;;;9.88;4.18;;;2.70;99.90;;;;;;5050243;28;20048;-70
2024/01/05 03:32:54;;;;;;;10.68;3.88;;;2.70;99.90;;;;;;5053559;28;20554;-70
2024/01/05 03:35:20;;;;;;;12.23;3.83;;;2.70;99.90;;;;;;5069171;28;20032;-70
2024/01/05 03:37:45;;;;;;;10.68;4.20;;;2.70;99.90;;;;;;5058748;28;20032;-70
2024/01/05 03:40:11;;;;;;;12.68;4.45;;;2.80;99.90;;;;;;5060067;28;20206;-70
2024/01/05 03:42:36;;;;;;;11.70;4.53;;;2.70;99.90;;;;;;5068165;28;20036;-70
2024/01/05 03:45:02;;;;;;;10.18;3.90;;;2.60;99.90;;;;;;5065636;28;20035;-70
2024/01/05 03:47:28;;;;;;;10.02;4.07;;;2.60;99.90;;;;;;5065550;28;20371;-70
2024/01/05 03:49:53;;;;;;;11.20;4.40;;;2.60;99.90;;;;;;5068158;28;20033;-70
2024/01/05 03:52:19;;;;;;;11.82;4.20;;;2.60;99.90;;;;;;5068794;28;20510;-69
2024/01/05 03:54:45;;;;;;;9.55;3.53;;;2.60;99.90;;;;;;5068390;28;20046;-70
2024/01/05 03:57:10;;;;;;;14.95;4.13;;;2.50;99.90;;;;;;5050333;28;20085;-71
2024/01/05 03:59:36;;;;;;;11.27;4.25;;;2.50;99.90;;;;;;5057810;28;20033;-70
2024/01/05 04:02:01;;;;;;;8.05;3.15;;;2.50;99.90;;;;;;5071087;28;20708;-70
2024/01/05 04:04:27;;;;;;;11.25;3.10;;;2.60;99.90;;;;;;5076821;28;20414;-70
2024/01/05 04:06:53;;;;;;;8.90;3.05;;;2.60;99.90;;;;;;5079009;28;20402;-71
2024/01/05 04:09:18;;;;;;;10.52;3.38;;;2.70;99.90;;;;;;5067460;28;20526;-70
2024/01/05 04:11:44;;;;;;;11.00;2.78;;;2.70;99.90;;;;;;5080724;28;20026;-72
2024/01/05 04:14:10;;;;;;;11.98;3.08;;;2.70;99.90;;;;;;5075052;28;20036;-70
2024/01/05 04:16:35;;;;;;;8.98;3.35;;;2.70;99.90;;;;;;5079871;28;20423;-70
2024/01/05 04:19:01;;;;;;;9.73;3.20;;;2.70;99.90;;;;;;5070184;28;20585;-70
2024/01/05 04:21:27;;;;;;;8.52;2.45;;;2.70;99.90;;;;;;5085830;28;20036;-70
2024/01/05 04:23:57;;;;;;;10.57;2.70;;;2.60;99.90;;;;;;5071756;28;20458;-71
2024/01/05 04:26:23;;;;;;;8.25;2.33;;;2.70;99.90;;;;;;5084490;28;20482;-70
2024/01/05 04:28:49;;;;;;;9.95;2.22;;;2.70;99.90;;;;;;5069604;28;20135;-70
2024/01/05 04:31:14;;;;;;;9.77;3.65;;;2.70;99.90;;;;;;5087061;28;20044;-69
2024/01/05 04:33:40;;;;;;;10.65;3.60;;;2.60;99.90;;;;;;5078960;28;20024;-71
2024/01/05 04:36:06;;;;;;;8.32;3.58;;;2.50;99.90;;;;;;5049385;28;20098;-70
2024/01/05 04:38:34;;;;;;;12.00;3.72;;;2.40;99.90;;;;;;5066609;28;20145;-70
2024/01/05 04:41:00;;;;;;;6.60;3.22;;;2.30;99.90;;;;;;5059685;28;20045;-70
2024/01/05 04:43:26;;;;;;;8.40;3.35;;;2.30;99.90;;;;;;5069816;28;20537;-70
2024/01/05 04:45:51;;;;;;;7.95;3.15;;;2.30;99.90;;;;;;5063584;28;20127;-69
2024/01/05 04:48:17;;;;;;;12.88;3.42;;;2.20;99.90;;;;;;5085947;28;20157;-70
2024/01/05 04:50:43;;;;;;;9.20;3.38;;;2.20;99.90;;;;;;5090594;28;20038;-71
2024/01/05 04:53:08;;;;;;;7.50;2.75;;;2.30;99.90;;;;;;5082853;28;20054;-70
2024/01/05 04:55:34;;;;;;;8.27;2.67;;;2.20;99.90;;;;;;5083010;28;20466;-70
2024/01/05 04:57:59;;;;;;;10.32;3.05;;;2.20;99.90;;;;;;5087193;28;20064;-70
2024/01/05 05:00:25;;;;;;;7.47;2.85;;;2.30;99.90;;;;;;5064060;28;20166;-71
2024/01/05 05:02:50;;;;;;;8.25;3.08;;;2.30;99.90;;;;;;5062165;28;20025;-69
2024/01/05 05:05:16;;;;;;;9.93;2.97;;;2.40;99.90;;;;;;5069990;28;20028;-69
2024/01/05 05:07:42;;;;;;;7.10;3.20;;;2.50;99.90;;;;;;5070430;28;20036;-71
2024/01/05 05:10:08;;;;;;;12.52;3.42;;;2.50;99.90;;;;;;5065816;28;20029;-71
2024/01/05 05:12:33;;;;;;;9.63;3.60;;;2.50;99.90;;;;;;5039702;28;20021;-71
2024/01/05 05:14:59;;;;;;;9.45;4.32;;;2.50;99.90;;;;;;5070577;28;20055;-70
2024/01/05 05:17:25;;;;;;;14.02;3.83;;;2.50;99.90;;;;;;5052314;28;20032;-70
2024/01/05 05:19:54;;;;;;;8.18;3.10;;;2.50;99.90;;;;;;5070493;28;20093;-71
2024/01/05 05:22:20;;;;;;;12.30;4.57;;;2.50;99.90;;;;;;5071456;28;20032;-70
2024/01/05 05:24:46;;;;;;;10.07;3.58;;;2.40;99.90;;;;;;5070468;28;20039;-72
2024/01/05 05:27:12;;;;;;;10.35;3.97;;;2.50;99.90;;;;;;5033230;28;20033;-70
2024/01/05 05:29:37;;;;;;;10.48;3.50;;;2.50;99.90;;;;;;5051536;28;20229;-70
2024/01/05 05:32:03;;;;;;;10.63;3.53;;;2.50;99.90;;;;;;5058116;28;20037;-70
2024/01/05 05:34:29;;;;;;;7.15;3.33;;;2.50;99.90;;;;;;5071370;28;20079;-70
2024/01/05 05:36:54;;;;;;;8.73;3.25;;;2.50;99.90;;;;;;5070198;28;20169;-69
2024/01/05 05:39:20;;;;;;;9.93;3.83;;;2.40;99.90;;;;;;5069852;28;20032;-71
2024/01/05 05:41:45;;;;;;;11.90;3.55;;;2.40;99.90;;;;;;5070038;28;20028;-72
2024/01/05 05:44:11;;;;;;;7.18;3.67;;;2.50;99.90;;;;;;5069820;28;20040;-71
2024/01/05 05:46:36;;;;;;;8.23;3.90;;;2.50;99.90;;;;;;5069596;28;20083;-71
2024/01/05 05:49:02;;;;;;;7.93;3.70;;;2.40;99.90;;;;;;5070649;28;20032;-70
2024/01/05 05:51:28;;;;;;;6.65;3.47;;;2.30;99.90;;;;;;5071048;28;20036;-69
2024/01/05 05:53:54;;;;;;;11.20;3.30;;;2.30;99.90;;;;;;5069049;28;20459;-69
2024/01/05 05:56:20;;;;;;;7.60;2.72;;;2.30;99.90;;;;;;5064135;28;20035;-70
2024/01/05 05:58:45;;;;;;;8.93;3.25;;;2.30;99.90;;;;;;5071059;28;20037;-70
2024/01/05 06:01:13;;;;;;;11.68;3.38;;;2.30;99.90;;;;;;5073850;28;20726;-70
2024/01/05 06:03:39;;;;;;;8.82;2.92;;;2.30;99.90;;;;;;5071152;28;20020;-69
2024/01/05 06:06:16;;;;;;;10.52;3.60;;;2.30;99.90;;;;;;5089308;28;20139;-69
2024/01/05 06:08:41;;;;;;;8.48;3.40;;;2.30;99.90;;;;;;5085898;28;20027;-71
2024/01/05 06:11:07;;;;;;;10.65;5.55;;;2.20;99.90;;;;;;5058831;28;20040;-71
2024/01/05 06:13:32;;;;;;;11.38;4.95;;;2.20;99.90;;;;;;5074738;28;20469;-71
2024/01/05 06:15:58;;;;;;;17.67;6.70;;;2.00;99.90;;;;;;5055763;28;20031;-71
2024/01/05 06:18:24;;;;;;;14.02;5.40;;;2.00;99.90;;;;;;5074620;28;20110;-71
2024/01/05 06:20:49;;;;;;;13.60;4.85;;;2.00;99.90;;;;;;5072391;28;20029;-71
2024/01/05 06:23:15;;;;;;;12.65;4.80;;;2.00;99.90;;;;;;5074303;28;20035;-71
2024/01/05 06:25:40;;;;;;;9.65;4.18;;;1.90;99.90;;;;;;5056435;28;20040;-69
2024/01/05 06:28:06;;;;;;;13.38;4.35;;;1.90;99.90;;;;;;5077726;28;20103;-70
2024/01/05 06:30:31;;;;;;;9.45;3.85;;;1.90;99.90;;;;;;5096185;28;20043;-70
2024/01/05 06:32:57;;;;;;;11.18;3.78;;;2.00;99.90;;;;;;5086226;28;20387;-71
2024/01/05 06:35:23;;;;;;;9.93;3.78;;;2.00;99.90;;;;;;5083135;28;20141;-71
2024/01/05 06:37:48;;;;;;;8.40;3.47;;;2.00;99.90;;;;;;5082349;28;20032;-70
2024/01/05 06:40:14;;;;;;;12.77;3.63;;;2.10;99.90;;;;;;5063330;28;20043;-69
2024/01/05 06:42:39;;;;;;;10.32;2.83;;;2.00;99.90;;;;;;5074158;28;20086;-68
2024/01/05 06:45:06;;;;;;;10.18;3.83;;;2.10;99.90;;;;;;5075507;28;20208;-69
2024/01/05 06:47:31;;;;;;;8.23;3.63;;;2.20;99.90;;;;;;5085238;28;20043;-70
2024/01/05 06:49:57;;;;;;;12.23;4.10;;;2.20;99.90;;;;;;5078569;28;20036;-69
2024/01/05 06:52:22;;;;;;;9.80;3.55;;;2.20;99.90;;;;;;5057765;28;20470;-71
2024/01/05 06:54:48;;;;;;;9.55;3.97;;;2.10;99.90;;;;;;5081867;28;20035;-71
2024/01/05 06:57:14;;;;;;;9.77;3.53;;;2.20;99.90;;;;;;5075748;28;20028;-70
2024/01/05 06:59:39;;;;;;;10.02;3.97;;;2.10;99.90;;;;;;5079244;28;20250;-71
2024/01/05 07:02:05;;;;;;;10.80;3.55;;;2.10;99.90;;;;;;5078865;28;20059;-70
2024/01/05 07:04:31;;;;;;;12.45;3.75;;;2.00;99.90;;;;;;5058916;28;20024;-70
2024/01/05 07:06:56;;;;;;;9.63;4.00;;;2.00;99.90;;;;;;5084443;28;20024;-71
2024/01/05 07:09:22;;;;;;;7.78;3.33;;;1.90;99.90;;;;;;5085861;28;20031;-70
2024/01/05 07:11:48;;;;;;;8.93;3.88;;;1.90;99.90;;;;;;5088212;28;20368;-69
2024/01/05 07:14:14;;;;;;;12.93;4.00;;;2.00;99.90;;;;;;5088783;28;20123;-70
2024/01/05 07:16:39;;;;;;;12.35;3.70;;;2.00;99.90;;;;;;5089583;28;20546;-69
2024/01/05 07:19:06;;;;;;;10.20;3.95;;;2.00;99.90;;;;;;5088759;28;20032;-70
2024/01/05 07:21:34;;;;;;;11.93;3.67;;;2.00;99.90;;;;;;5071083;28;20043;-70
2024/01/05 07:23:59;;;;;;;10.25;3.95;;;2.10;99.90;;;;;;5088606;28;20016;-66
2024/01/05 07:26:25;;;;;;;18.48;5.05;;;2.10;99.90;;;;;;5089185;28;20032;-71
2024/01/05 07:28:51;;;;;;;18.42;6.18;;;2.20;99.90;;;;;;5089410;28;20073;-66
2024/01/05 07:31:22;;;;;;;17.10;6.20;;;2.10;99.90;;;;;;5087956;28;20558;-68
2024/01/05 07:33:47;;;;;;;16.45;6.60;;;2.20;99.90;;;;;;5089032;28;20039;-68
2024/01/05 07:36:13;;;;;;;14.70;5.50;;;2.20;99.90;;;;;;5088064;28;20024;-69
2024/01/05 07:38:38;;;;;;;15.82;5.57;;;2.20;99.90;;;;;;5088423;28;20826;-68
2024/01/05 07:41:04;;;;;;;17.23;5.88;;;2.10;99.90;;;;;;5084966;28;20037;-67
2024/01/05 07:43:30;;;;;;;13.60;6.03;;;2.10;99.90;;;;;;5069074;28;20375;-67
2024/01/05 07:45:56;;;;;;;14.82;6.30;;;2.10;99.90;;;;;;5068220;28;20029;-75
2024/01/05 07:48:22;;;;;;;14.50;5.28;;;2.10;99.90;;;;;;5068908;28;20028;-69
2024/01/05 07:50:48;;;;;;;15.00;5.72;;;2.10;99.90;;;;;;5087518;28;20039;-69
2024/01/05 07:53:14;;;;;;;13.52;5.50;;;2.00;99.90;;;;;;5066077;28;20119;-67
2024/01/05 07:55:39;;;;;;;15.93;5.35;;;2.00;99.90;;;;;;5089162;28;20129;-68
2024/01/05 07:58:05;;;;;;;12.25;5.20;;;2.10;99.90;;;;;;5088176;28;20036;-68
2024/01/05 08:00:33;;;;;;;11.50;4.78;;;2.00;99.90;;;;;;5070492;28;20474;-67
2024/01/05 08:03:01;;;;;;;16.45;5.30;;;2.00;99.90;;;;;;5088489;28;20035;-69
2024/01/05 08:05:27;;;;;;;13.80;5.28;;;2.10;99.90;;;;;;5070435;28;20442;-69
2024/01/05 08:07:52;;;;;;;17.27;6.10;;;2.10;99.90;;;;;;5088408;28;20063;-71
2024/01/05 08:10:18;;;;;;;24.50;10.55;;;2.20;99.90;;;;;;5087598;28;20028;-67
2024/01/05 08:12:43;;;;;;;42.58;16.90;;;2.20;99.90;;;;;;5088598;28;20028;-67
2024/01/05 08:15:09;;;;;;;34.20;16.17;;;2.30;99.90;;;;;;5087248;28;20370;-65
2024/01/05 08:17:35;;;;;;;25.42;11.13;;;2.30;99.90;;;;;;5088724;28;20024;-68
2024/01/05 08:20:01;;;;;;;29.27;12.40;;;2.40;99.90;;;;;;5087100;28;20028;-69
2024/01/05 08:22:26;;;;;;;36.92;14.10;;;2.40;99.90;;;;;;5088690;28;20032;-68
2024/01/05 08:24:52;;;;;;;39.40;14.70;;;2.30;99.90;;;;;;5087969;28;20063;-70
2024/01/05 08:27:17;;;;;;;61.53;25.35;;;2.30;99.90;;;;;;5087929;28;20616;-69
2024/01/05 08:29:43;;;;;;;44.20;19.27;;;2.40;99.90;;;;;;5088608;28;20500;-68
2024/01/05 08:32:09;;;;;;;35.88;14.68;;;2.40;99.90;;;;;;5087599;28;20028;-70
2024/01/05 08:34:34;;;;;;;30.45;12.38;;;2.50;99.90;;;;;;5087962;28;20039;-68
2024/01/05 08:37:00;;;;;;;23.85;10.40;;;2.50;99.90;;;;;;5087794;28;20184;-72
2024/01/05 08:39:26;;;;;;;28.20;11.13;;;2.60;99.90;;;;;;5069837;28;20166;-71
2024/01/05 08:41:51;;;;;;;24.88;9.77;;;2.70;99.90;;;;;;5070247;28;20032;-69
2024/01/05 08:44:18;;;;;;;26.58;11.23;;;2.70;99.90;;;;;;5087625;28;20143;-70
2024/01/05 08:46:43;;;;;;;35.40;15.35;;;2.80;99.90;;;;;;5088328;28;20600;-69
2024/01/05 08:49:09;;;;;;;46.65;17.80;;;2.90;99.90;;;;;;5068889;28;20115;-69
2024/01/05 08:51:42;;;;;;;33.30;13.75;;;3.10;99.90;;;;;;5070175;28;20059;-70
2024/01/05 08:54:08;;;;;;;17.80;8.48;;;3.30;99.90;;;;;;5087199;28;20028;-71
2024/01/05 08:56:33;;;;;;;18.35;8.30;;;3.40;99.90;;;;;;5060411;28;20485;-70
2024/01/05 08:58:59;;;;;;;16.58;6.85;;;3.50;99.90;;;;;;5049615;28;20054;-72
2024/01/05 09:01:25;;;;;;;21.55;9.15;;;3.50;99.90;;;;;;5049507;28;20060;-70
2024/01/05 09:03:52;;;;;;;17.08;7.00;;;3.50;99.90;;;;;;5068236;28;20025;-69
2024/01/05 09:06:18;;;;;;;19.05;6.07;;;3.50;99.90;;;;;;5067309;28;20522;-68
2024/01/05 09:08:43;;;;;;;20.80;6.50;;;3.50;99.90;;;;;;5069270;28;20356;-68
2024/01/05 09:11:09;;;;;;;23.98;11.40;;;3.50;99.90;;;;;;5086062;28;20038;-69
2024/01/05 09:13:35;;;;;;;13.85;6.07;;;3.60;99.90;;;;;;5088306;28;20032;-69
2024/01/05 09:16:00;;;;;;;15.82;7.05;;;3.50;99.90;;;;;;5087941;28;20039;-70
2024/01/05 09:18:28;;;;;;;10.25;5.75;;;3.50;99.90;;;;;;5088202;28;20099;-68
2024/01/05 09:20:53;;;;;;;13.68;5.57;;;3.60;99.90;;;;;;5087464;28;20060;-69
2024/01/05 09:23:19;;;;;;;12.10;5.43;;;3.70;99.90;;;;;;5087396;28;20509;-68
2024/01/05 09:25:44;;;;;;;10.45;5.05;;;3.80;99.90;;;;;;5070964;28;20500;-68
2024/01/05 09:28:10;;;;;;;10.48;5.05;;;3.80;99.90;;;;;;5087743;28;20055;-69
2024/01/05 09:30:36;;;;;;;10.52;4.63;;;3.70;99.90;;;;;;5110206;28;20032;-70
2024/01/05 09:33:02;;;;;;;10.40;5.25;;;3.70;99.90;;;;;;5103004;28;20088;-71
2024/01/05 09:35:28;;;;;;;10.32;4.90;;;3.70;99.90;;;;;;5088753;28;20042;-71
2024/01/05 09:37:53;;;;;;;11.32;5.05;;;3.70;99.90;;;;;;5068733;28;20035;-68
2024/01/05 09:40:20;;;;;;;9.52;4.65;;;3.70;99.90;;;;;;5070494;28;20028;-67
2024/01/05 09:42:50;;;;;;;11.40;4.85;;;3.80;99.90;;;;;;5078154;28;20462;-70
2024/01/05 09:45:18;;;;;;;13.25;5.68;;;3.80;99.90;;;;;;5086083;28;20029;-69
2024/01/05 09:47:44;;;;;;;11.90;4.97;;;3.90;99.90;;;;;;5071633;28;20024;-69
2024/01/05 09:50:12;;;;;;;9.70;5.28;;;3.90;99.90;;;;;;5088651;28;20151;-69
2024/01/05 09:52:38;;;;;;;14.68;5.45;;;4.00;99.90;;;;;;5089675;28;20027;-69
2024/01/05 09:55:04;;;;;;;13.02;5.05;;;4.10;99.90;;;;;;5080394;28;20020;-71
2024/01/05 09:57:31;;;;;;;11.23;5.00;;;4.20;99.90;;;;;;5086064;28;20071;-70
2024/01/05 09:59:58;;;;;;;14.88;5.15;;;4.30;99.90;;;;;;5085650;28;20037;-69
2024/01/05 10:02:35;;;;;;;14.65;5.22;;;4.40;99.90;;;;;;5096532;28;20123;-69
2024/01/05 10:05:01;;;;;;;11.80;5.63;;;4.40;99.90;;;;;;5088994;28;20048;-70
2024/01/05 10:07:26;;;;;;;14.15;5.55;;;4.50;99.90;;;;;;5090439;28;20032;-69
2024/01/05 10:09:54;;;;;;;12.93;4.78;;;4.60;99.90;;;;;;5090639;28;20028;-69
2024/01/05 10:12:20;;;;;;;10.98;4.97;;;4.60;99.90;;;;;;5071904;28;20104;-68
2024/01/05 10:14:47;;;;;;;11.73;5.35;;;4.60;99.90;;;;;;5079586;28;20036;-69
2024/01/05 10:17:15;;;;;;;14.30;5.85;;;4.70;99.90;;;;;;5068478;28;20127;-70
2024/01/05 10:19:41;;;;;;;14.02;6.75;;;4.80;99.90;;;;;;5071259;28;20067;-69
2024/01/05 10:22:14;;;;;;;21.77;8.30;;;4.90;99.90;;;;;;5078093;28;20052;-71
2024/01/05 10:24:42;;;;;;;15.88;7.57;;;5.00;99.90;;;;;;5079599;28;20109;-70
2024/01/05 10:27:12;;;;;;;17.40;8.13;;;5.20;99.90;;;;;;5066680;28;20024;-69
2024/01/05 10:29:42;;;;;;;15.80;7.75;;;5.30;99.90;;;;;;5085548;28;20024;-68
2024/01/05 10:32:18;;;;;;;13.45;5.72;;;5.40;99.90;;;;;;5078606;28;20036;-69
2024/01/05 10:34:45;;;;;;;15.68;7.40;;;5.60;99.90;;;;;;5079302;28;20027;-69
2024/01/05 10:37:12;;;;;;;14.80;6.68;;;5.70;99.90;;;;;;5085485;28;20052;-71
2024/01/05 10:39:38;;;;;;;16.40;6.80;;;5.80;99.90;;;;;;5082403;28;20040;-69
2024/01/05 10:42:39;;;;;;;14.55;6.68;;;5.80;99.90;;;;;;5088175;28;20020;-70
2024/01/05 10:45:05;;;;;;;16.67;7.38;;;5.80;99.90;;;;;;5001053;28;20037;-71
2024/01/05 10:47:31;;;;;;;16.08;7.60;;;5.90;99.90;;;;;;5075066;28;20486;-71
2024/01/05 10:49:57;;;;;;;24.45;7.88;;;5.90;99.90;;;;;;5089931;28;20031;-71
2024/01/05 10:52:32;;;;;;;14.25;6.88;;;6.00;99.90;;;;;;5087527;28;20035;-69
2024/01/05 10:55:02;;;;;;;21.30;6.70;;;5.90;99.90;;;;;;5090528;28;20121;-69
2024/01/05 10:57:30;;;;;;;16.58;7.00;;;5.80;99.90;;;;;;5088445;28;20268;-68
2024/01/05 10:59:56;;;;;;;14.13;6.85;;;5.60;99.90;;;;;;5089775;28;20131;-70
2024/01/05 11:02:38;;;;;;;13.90;6.38;;;5.50;99.90;;;;;;5084783;28;20495;-72
2024/01/05 11:05:13;;;;;;;15.02;6.28;;;5.50;99.90;;;;;;5078230;28;20020;-71
2024/01/05 11:07:40;;;;;;;13.27;6.60;;;5.60;99.90;;;;;;5080632;28;20081;-70
2024/01/05 11:10:43;;;;;;;18.85;7.90;;;5.80;99.90;;;;;;5059435;28;20097;-73
2024/01/05 11:13:32;;;;;;;16.17;7.45;;;6.00;99.90;;;;;;5067969;28;20031;-73
2024/01/05 11:16:35;;;;;;;13.93;6.65;;;6.20;99.90;;;;;;5090529;28;20040;-71
2024/01/05 11:19:35;;;;;;;13.45;7.28;;;6.30;99.90;;;;;;5092142;28;20348;-71
2024/01/05 11:22:08;;;;;;;13.48;6.90;;;6.40;99.90;;;;;;5086215;28;20163;-72
2024/01/05 11:24:35;;;;;;;21.70;11.05;;;6.40;99.90;;;;;;5068804;28;20029;-71
2024/01/05 11:27:31;;;;;;;20.23;9.40;;;6.60;99.90;;;;;;5069391;28;20028;-71
2024/01/05 11:29:57;;;;;;;18.88;6.63;;;6.70;99.90;;;;;;5069419;28;20028;-71
2024/01/05 11:32:46;;;;;;;13.30;6.85;;;6.80;99.90;;;;;;5068453;28;20086;-71
2024/01/05 11:35:19;;;;;;;12.57;6.32;;;6.80;99.90;;;;;;5083554;28;20028;-72
2024/01/05 11:37:46;;;;;;;13.55;6.57;;;6.90;99.90;;;;;;5050856;28;20105;-71
2024/01/05 11:40:38;;;;;;;13.75;6.32;;;7.00;99.90;;;;;;5068468;28;20024;-72
2024/01/05 11:43:29;;;;;;;17.73;6.45;;;7.10;99.90;;;;;;5068043;28;20123;-71
2024/01/05 11:45:55;;;;;;;12.95;5.97;;;7.10;99.90;;;;;;5070177;28;20028;-72
2024/01/05 11:48:33;;;;;;;16.30;6.45;;;7.00;99.90;;;;;;5087223;28;20515;-72
2024/01/05 11:50:59;;;;;;;16.42;6.45;;;6.90;99.90;;;;;;5070956;28;20028;-71
2024/01/05 11:53:28;;;;;;;16.98;6.90;;;6.80;99.90;;;;;;5069901;28;20035;-71
2024/01/05 11:55:57;;;;;;;13.55;6.57;;;6.70;99.90;;;;;;5060654;28;20032;-72
2024/01/05 11:58:35;;;;;;;14.45;7.07;;;6.70;99.90;;;;;;5065499;28;20426;-71
2024/01/05 12:01:03;;;;;;;14.70;6.80;;;6.80;99.90;;;;;;5098160;28;20063;-72
2024/01/05 12:03:30;;;;;;;15.02;6.60;;;6.80;99.90;;;;;;5070060;28;20043;-72
2024/01/05 12:05:56;;;;;;;15.48;6.70;;;6.80;99.90;;;;;;5089002;28;20028;-71
2024/01/05 12:08:23;;;;;;;14.68;6.78;;;6.80;99.90;;;;;;5088153;28;20032;-71
2024/01/05 12:10:56;;;;;;;13.13;6.13;;;6.80;99.90;;;;;;5088598;28;20382;-72
2024/01/05 12:13:26;;;;;;;16.38;5.78;;;6.80;99.90;;;;;;5072530;28;20023;-71
2024/01/05 12:16:04;;;;;;;8.55;4.35;;;6.90;99.90;;;;;;5090859;28;20130;-71
2024/01/05 12:18:31;;;;;;;14.50;6.45;;;7.00;99.90;;;;;;5089953;28;20039;-71
2024/01/05 12:20:58;;;;;;;13.10;6.50;;;7.10;99.90;;;;;;5106175;28;20039;-72
2024/01/05 12:23:24;;;;;;;15.10;6.78;;;7.10;99.90;;;;;;5069475;28;20072;-71
2024/01/05 12:26:07;;;;;;;16.55;7.47;;;7.10;99.90;;;;;;5088498;28;20024;-72
2024/01/05 12:28:38;;;;;;;17.10;6.78;;;7.10;99.90;;;;;;5066370;28;20691;-71
2024/01/05 12:31:04;;;;;;;;;;;7.10;99.90;;;;;;5069038;28;20032;-71
2024/01/05 12:33:32;;;;;;;13.52;5.85;;;7.20;99.90;;;;;;5100979;28;19941;-71
2024/01/05 12:35:58;;;;;;;14.00;5.28;;;7.20;99.90;;;;;;5108882;28;20076;-71
2024/01/05 12:38:30;;;;;;;12.13;5.30;;;7.30;99.90;;;;;;5108107;28;20028;-71
2024/01/05 12:41:10;;;;;;;16.40;4.43;;;7.40;99.90;;;;;;5108781;28;20027;-71
2024/01/05 12:43:45;;;;;;;12.23;4.45;;;7.50;99.90;;;;;;5089592;28;20028;-72
2024/01/05 12:46:12;;;;;;;15.13;6.00;;;7.60;99.90;;;;;;5108379;28;20024;-75
2024/01/05 12:48:37;;;;;;;16.00;6.22;;;7.60;99.90;;;;;;5068338;28;20756;-71